Astoria, NY

3:30 AM EDT on September 01, 2014 (GMT -0400)
Woodside | Change Station
CLOSE
Current Station
Personal Weather Station
Location: Queens, NY
Elevation: 115 ft
Nearby Weather Stations

Elev 115 ft 40.75 °N, 73.91 °W | Updated 6 minutes ago

Mostly Cloudy
Mostly Cloudy
75.3 °F
Feels Like 75 °F
N
2.0
Wind Variable Wind from SSE
Gusts 4.0 mph

Today
High -- | Low -- °F
--% Chance of Precip.
Yesterday
High -- | Low -- °F
Precip. -- in
6:22 AM 7:28 PM
Waxing Crescent, 38% visible
Pressure 29.99 in
Visibility 10.0 miles
Clouds Mostly Cloudy 9000 ft
Heat Index 75 °F
Dew Point 71 °F
Humidity 86%
Rainfall 0.93 in
Snow Depth Not available.
UV 0 out of 12
Pollen 8.20 out of 12
Air Quality Not available.
Flu Activity Not available.
METAR KNYC 010651Z AUTO VRB05KT 10SM BKN090 25/22 A3001 RMK AO2 SLP153 T02500217 $

More Conditions Fewer Conditions

Pressure 29.99 in
Visibility 10.0 miles
Clouds Mostly Cloudy 9000 ft
Heat Index 75 °F
Dew Point 71 °F
Humidity 86%
Rainfall 0.93 in
Snow Depth Not available.
UV 0 out of 12
Pollen 8.20 out of 12
Air Quality Not available.
Flu Activity Not available.
METAR KNYC 010651Z AUTO VRB05KT 10SM BKN090 25/22 A3001 RMK AO2 SLP153 T02500217 $

More Conditions Fewer Conditions

10-Day Weather Forecast

Almanac

Astronomy

Sep. 01, 2014 Rise Set
Actual Time 6:22 AM EDT 7:28 PM EDT
Civil Twilight 5:54 AM EDT 7:56 PM EDT
Nautical Twilight 5:20 AM EDT 8:29 PM EDT
Astronomical Twilight 4:45 AM EDT 9:04 PM EDT
Moon 1:08 PM EDT 11:24 PM EDT
Length of Visible Light 14h 01m
Length of Day
13h 05m
Tomorrow will be 2m 36s shorter.
Waxing Crescent, 38% of the Moon is Illuminated
Today
Waxing Crescent
Sep 2
First Quarter
Sep 8
Full
Sep 15
Last Quarter
Sep 24
New

Today's Extremes

State Highs State Lows

Community

WunderPhotos

Upload Photos

1,749,154 photos uploaded!

Nearby

Snow Depth

Station Depth Elevation
No new snow has been reported.

Earthquake Activity

City Distance Mag. Time & Date
No recent earthquake activity has been reported nearby.
Minimum magnitude displayed is 2.5.

Coastal Water Temperatures

Place Temperature
Sandy Hook, NJ 75.9 °F
The Battery, NY 73.9 °F
Bergen Point West Reach, NJ 75.0 °F
Kings Point, NY 73.9 °F

Nearby Weather Stations